This is the latest recevied weather packets stored in our database for station/object IU3NMQ-10. If no packets are shown the sender has not sent any weather packets the latest 10 day(s).
| Time | Temp. | Humidity | Pressure | Rain* | Wind** | Luminosity | Snow |
|---|---|---|---|---|---|---|---|
| 1777886834 | 26.11° C | 37% | 1014.3 hPa | - | - | - | - |
| 1777886797 | 26.11° C | 37% | 1014.3 hPa | - | - | - | - |
| 1777885893 | 26.67° C | 36% | 1014.3 hPa | - | - | - | - |
| 1777884993 | 26.11° C | 38% | 1014.4 hPa | - | - | - | - |
| 1777884093 | 26.11° C | 40% | 1014.4 hPa | - | - | - | - |
| 1777883192 | 25° C | 42% | 1014.5 hPa | - | - | - | - |
| 1777882292 | 24.44° C | 42% | 1014.6 hPa | - | - | - | - |
| 1777881392 | 23.89° C | 45% | 1014.6 hPa | - | - | - | - |
| 1777880492 | 22.78° C | 46% | 1014.4 hPa | - | - | - | - |
| 1777879592 | 22.22° C | 48% | 1014.4 hPa | - | - | - | - |
| 1777878692 | 21.67° C | 50% | 1014.5 hPa | - | - | - | - |
| 1777877792 | 21.11° C | 51% | 1014.4 hPa | - | - | - | - |
| 1777876892 | 20° C | 54% | 1014.3 hPa | - | - | - | - |
| 1777876103 | 19.44° C | 58% | 1014.2 hPa | - | - | - | - |
| 1777875991 | 19.44° C | 58% | 1014.2 hPa | - | - | - | - |
| 1777875091 | 18.89° C | 57% | 1014.2 hPa | - | - | - | - |
| 1777874191 | 17.78° C | 60% | 1014.1 hPa | - | - | - | - |
| 1777873291 | 17.22° C | 62% | 1014.1 hPa | - | - | - | - |
| 1777872391 | 17.22° C | 62% | 1013.9 hPa | - | - | - | - |
| 1777871491 | 16.67° C | 61% | 1013.8 hPa | - | - | - | - |
| 1777870591 | 16.67° C | 62% | 1013.7 hPa | - | - | - | - |
| 1777869691 | 15.56° C | 63% | 1013.8 hPa | - | - | - | - |
| 1777868790 | 15.56° C | 63% | 1013.7 hPa | - | - | - | - |
| 1777867890 | 15° C | 64% | 1013.5 hPa | - | - | - | - |
| 1777866990 | 15° C | 64% | 1013.6 hPa | - | - | - | - |
* Rain since midnight (hover to see other rain measurements)
** Current wind speed in m/s (hover to see current wind gust speed)